Pride Of Canterbury — MPQZ6 — position and weather

sailwx.info

Track history (hours):
 
Tides and Currents Weather Stations Pressure Air Temp Water Temp Dewpoint Dewpoint Depression Visibility Wind Speed Wind Dir Waves Ship Positions

Pride Of Canterbury

Operator: P & O Ferries

Last reported at 2017-Apr-24 03:00 UTC. Time now 2017-Apr-24 03:23 UTC.
Position N 50°58' E 001°45'.

Length 180 m; draft 5.7 m.

Type: Passenger vessel. MMSI: 232001060.

Date/timePositionNaut miles runAvg speedWind from/ knotsBaromVisibWave heightAir tempDewpointWater temp
2017-Apr-24 03:00N 50°58' E 001°45'4 8.7
2017-Apr-24 02:30N 50°58' E 001°51'0 0.0
2017-Apr-24 02:00N 50°58' E 001°51'0 0.0
2017-Apr-24 01:30N 50°58' E 001°51'5 9.0
2017-Apr-24 00:59N 50°58' E 001°44'918.0
2017-Apr-24 00:30N 50°60' E 001°31'919.0
2017-Apr-24 00:00N 51°07' E 001°20'1 1.8
2017-Apr-23 23:30N 51°07' E 001°20'0 0.2
2017-Apr-23 22:58N 51°07' E 001°20'715.6
2017-Apr-23 22:30N 51°05' E 001°31'918.1
2017-Apr-23 22:00N 50°59' E 001°42'611.2
2017-Apr-23 21:30N 50°58' E 001°51'0 0.0
2017-Apr-23 20:59N 50°58' E 001°51'0 0.4
2017-Apr-23 20:30N 50°58' E 001°51'918.5
2017-Apr-23 20:00N 50°60' E 001°36'815.4
2017-Apr-23 19:30N 51°04' E 001°26'5 9.1
2017-Apr-23 18:56N 51°07' E 001°20'0 0.0
2017-Apr-23 18:28N 51°07' E 001°20'2 4.2
2017-Apr-23 18:00N 51°07' E 001°23'817.0
2017-Apr-23 17:31N 51°03' E 001°35'816.2
2017-Apr-23 17:00N 50°58' E 001°45'4 7.3
2017-Apr-23 16:30N 50°58' E 001°51'0 0.0
2017-Apr-23 16:00N 50°58' E 001°51'510.0
2017-Apr-23 15:31N 50°58' E 001°43'917.8
2017-Apr-23 15:00N 51°01' E 001°30'9 8.4
2017-Apr-23 13:59N 51°07' E 001°20'1 2.2
2017-Apr-23 13:31N 51°07' E 001°21'918.1
2017-Apr-23 13:01N 51°03' E 001°34'918.3
2017-Apr-23 12:30N 50°58' E 001°47'3 5.2
2017-Apr-23 11:59N 50°58' E 001°51'0 0.0
2017-Apr-23 11:30N 50°58' E 001°51'613.2
2017-Apr-23 11:01N 50°59' E 001°41'918.9
2017-Apr-23 10:30N 51°04' E 001°28'611.1
2017-Apr-23 09:57N 51°07' E 001°20'0 0.0
2017-Apr-23 09:29N 51°07' E 001°20'0 0.0
2017-Apr-23 09:00N 51°07' E 001°20'0 0.0
2017-Apr-23 08:30N 51°07' E 001°20'0 0.0
2017-Apr-23 07:59N 51°07' E 001°20'0 0.0
2017-Apr-23 07:28N 51°07' E 001°20'0 0.0
2017-Apr-23 06:53N 51°07' E 001°20'0 0.0
2017-Apr-23 06:30N 51°07' E 001°20'0 0.0
2017-Apr-23 06:00N 51°07' E 001°20'0 0.0
2017-Apr-23 05:29N 51°07' E 001°20'0 0.0
2017-Apr-23 04:59N 51°07' E 001°20'0 0.0
2017-Apr-23 04:17N 51°07' E 001°20'0 0.0
2017-Apr-23 04:00N 51°07' E 001°20'0 0.0
2017-Apr-23 03:28N 51°07' E 001°20'0 0.0
2017-Apr-23 02:12N 51°07' E 001°20'0 0.0
2017-Apr-23 01:59N 51°07' E 001°20'0 0.0
2017-Apr-23 01:29N 51°07' E 001°20'0 0.0
2017-Apr-23 00:47N 51°07' E 001°20'0 0.0
2017-Apr-23 00:29N 51°07' E 001°20'0 0.0
2017-Apr-22 23:59N 51°07' E 001°20'0 0.0
2017-Apr-22 23:30N 51°07' E 001°20'0 0.0
2017-Apr-22 22:58N 51°07' E 001°20'0 0.0
2017-Apr-22 22:29N 51°07' E 001°20'0 0.0
2017-Apr-22 22:00N 51°07' E 001°20'0 0.0
2017-Apr-22 21:26N 51°07' E 001°20'0 0.0
2017-Apr-22 20:03N 51°07' E 001°20'0 0.0
2017-Apr-22 19:54N 51°07' E 001°20'0 0.0
2017-Apr-22 19:26N 51°07' E 001°20'0 0.0
2017-Apr-22 19:00N 51°07' E 001°20'0 0.0
2017-Apr-22 18:28N 51°07' E 001°20'3 5.7
2017-Apr-22 18:01N 51°07' E 001°24'918.1
2017-Apr-22 17:31N 51°02' E 001°36'917.3
2017-Apr-22 17:01N 50°58' E 001°49'1 2.8
2017-Apr-22 16:31N 50°58' E 001°51'0 0.0
2017-Apr-22 16:00N 50°58' E 001°51'612.7
2017-Apr-22 15:30N 50°58' E 001°41'918.2
2017-Apr-22 15:00N 51°04' E 001°29'712.0
2017-Apr-22 14:26N 51°07' E 001°20'3 3.1
2017-Apr-22 13:31N 51°06' E 001°24'917.9
2017-Apr-22 13:01N 51°02' E 001°37'917.2
2017-Apr-22 12:31N 50°58' E 001°49'1 2.4
2017-Apr-22 11:58N 50°58' E 001°51'0 0.0
2017-Apr-22 11:30N 50°58' E 001°51'612.5
2017-Apr-22 11:01N 50°59' E 001°41'1019.4
2017-Apr-22 10:30N 51°04' E 001°28'6 4.6
2017-Apr-22 09:09N 51°07' E 001°20'110.0
2017-Apr-22 09:01N 51°07' E 001°23'918.7
2017-Apr-22 08:31N 51°02' E 001°35'917.6
2017-Apr-22 08:01N 50°58' E 001°48'2 3.6
2017-Apr-22 07:24N 50°58' E 001°51'0 0.0
2017-Apr-22 07:00N 50°58' E 001°51'612.3
2017-Apr-22 06:30N 50°58' E 001°42'918.9
2017-Apr-22 06:00N 51°03' E 001°29'7 3.4
2017-Apr-22 04:00N 51°07' E 001°20'713.3
2017-Apr-22 03:30N 51°05' E 001°30'1020.0
2017-Apr-22 03:00N 50°59' E 001°43'510.6
2017-Apr-22 02:30N 50°58' E 001°51'0 0.0
2017-Apr-22 02:00N 50°58' E 001°51'0 0.0
2017-Apr-22 01:28N 50°58' E 001°51'612.7
2017-Apr-22 01:01N 50°58' E 001°42'918.8
2017-Apr-22 00:31N 51°03' E 001°29'712.1
2017-Apr-21 23:55N 51°07' E 001°20'0 0.0
2017-Apr-21 23:27N 51°07' E 001°20'0 0.4
2017-Apr-21 22:59N 51°07' E 001°20'816.2
2017-Apr-21 22:30N 51°05' E 001°32'918.5
2017-Apr-21 22:00N 50°59' E 001°43'5 9.9
2017-Apr-21 21:30N 50°58' E 001°51'0 0.0
2017-Apr-21 21:00N 50°58' E 001°51'4 7.3
2017-Apr-21 20:30N 50°58' E 001°45'918.1
2017-Apr-21 20:00N 51°02' E 001°33'917.7
2017-Apr-21 19:30N 51°07' E 001°21'1 1.2
2017-Apr-21 18:58N 51°07' E 001°20'0 0.0
2017-Apr-21 18:30N 51°07' E 001°20'2 4.3
2017-Apr-21 18:00N 51°07' E 001°23'917.5
2017-Apr-21 17:30N 51°02' E 001°35'816.9
2017-Apr-21 17:01N 50°58' E 001°47'3 5.3
2017-Apr-21 16:30N 50°58' E 001°51'0 0.0
2017-Apr-21 16:00N 50°58' E 001°51'715.1
2017-Apr-21 15:31N 50°59' E 001°39'1019.3
2017-Apr-21 15:00N 51°04' E 001°26'5 8.7
2017-Apr-21 14:25N 51°07' E 001°20'3 3.2
2017-Apr-21 13:30N 51°07' E 001°25'917.0
2017-Apr-21 13:00N 51°03' E 001°37'917.3
2017-Apr-21 12:30N 50°58' E 001°48'2 3.5
2017-Apr-21 12:00N 50°58' E 001°51'0 0.0
2017-Apr-21 11:31N 50°58' E 001°51'510.5
2017-Apr-21 11:00N 50°58' E 001°43'918.7
2017-Apr-21 10:30N 51°03' E 001°30'8 5.5
2017-Apr-21 09:07N 51°07' E 001°20'1 8.4
2017-Apr-21 09:00N 51°07' E 001°22'918.1
2017-Apr-21 08:31N 51°03' E 001°34'917.9
2017-Apr-21 08:00N 50°58' E 001°46'3 5.8
2017-Apr-21 07:30N 50°58' E 001°51'0 0.0
2017-Apr-21 07:01N 50°58' E 001°51'612.6
2017-Apr-21 06:30N 50°58' E 001°41'1020.0
2017-Apr-21 06:00N 51°04' E 001°28'6 3.2
2017-Apr-21 04:10N 51°07' E 001°20'0 1.8
2017-Apr-21 04:00N 51°07' E 001°21'714.4
2017-Apr-21 03:31N 51°05' E 001°31'816.6
2017-Apr-21 03:00N 50°60' E 001°42'612.1
2017-Apr-21 02:30N 50°58' E 001°51'0 0.0
2017-Apr-21 01:59N 50°58' E 001°51'0 0.0
2017-Apr-21 01:29N 50°58' E 001°51'3 5.7
2017-Apr-21 01:01N 50°58' E 001°47'816.9
2017-Apr-21 00:31N 50°60' E 001°34'918.0
2017-Apr-21 00:01N 51°06' E 001°23'3 5.0
2017-Apr-20 23:30N 51°07' E 001°20'0 0.1
2017-Apr-20 23:00N 51°07' E 001°20'713.7
2017-Apr-20 22:31N 51°05' E 001°30'918.6
2017-Apr-20 22:01N 50°59' E 001°42'611.2
2017-Apr-20 21:30N 50°58' E 001°51'0 0.0
2017-Apr-20 21:00N 50°58' E 001°51'1 2.9
2017-Apr-20 20:30N 50°58' E 001°49'714.3
2017-Apr-20 20:00N 50°60' E 001°38'1019.2
2017-Apr-20 19:30N 51°05' E 001°25'4 6.2
2017-Apr-20 18:53N 51°07' E 001°20'0 0.1
2017-Apr-20 18:20N 51°07' E 001°20'3 8.3
2017-Apr-20 18:00N 51°07' E 001°24'917.6
2017-Apr-20 17:30N 51°03' E 001°37'816.7
2017-Apr-20 17:00N 50°58' E 001°48'2 3.8
2017-Apr-20 16:30N 50°58' E 001°51'0 0.0
2017-Apr-20 15:57N 50°58' E 001°51'715.6
2017-Apr-20 15:31N 50°59' E 001°40'1019.4
2017-Apr-20 15:01N 51°05' E 001°28'610.6
2017-Apr-20 14:28N 51°07' E 001°20'2 2.2
2017-Apr-20 13:30N 51°07' E 001°23'917.9
2017-Apr-20 13:00N 51°02' E 001°36'917.3
2017-Apr-20 12:30N 50°58' E 001°48'2 4.2
2017-Apr-20 12:00N 50°58' E 001°51'0 0.0
2017-Apr-20 11:28N 50°58' E 001°51'511.6
2017-Apr-20 11:00N 50°58' E 001°42'918.4
2017-Apr-20 10:30N 51°03' E 001°30'8 5.7
2017-Apr-20 09:12N 51°07' E 001°20'211.7
2017-Apr-20 09:00N 51°07' E 001°24'918.0
2017-Apr-20 08:30N 51°03' E 001°36'917.7
2017-Apr-20 08:00N 50°58' E 001°48'2 3.4
2017-Apr-20 07:30N 50°58' E 001°51'0 0.0
2017-Apr-20 07:00N 50°58' E 001°51'5 9.3
2017-Apr-20 06:31N 50°58' E 001°44'1019.4
2017-Apr-20 06:01N 51°03' E 001°30'8 4.3
2017-Apr-20 04:12N 51°07' E 001°20'1 3.0
2017-Apr-20 04:00N 51°07' E 001°21'815.9
2017-Apr-20 03:30N 51°05' E 001°33'817.0
2017-Apr-20 03:00N 50°59' E 001°43'510.4
2017-Apr-20 02:30N 50°58' E 001°51'0 0.0
2017-Apr-20 02:00N 50°58' E 001°51'0 0.0
2017-Apr-20 01:30N 50°58' E 001°51'1 2.6
2017-Apr-20 01:00N 50°58' E 001°49'917.5
2017-Apr-20 00:30N 50°60' E 001°36'1019.6
2017-Apr-20 00:01N 51°06' E 001°24'3 5.3
2017-Apr-19 23:29N 51°07' E 001°20'0 0.1
2017-Apr-19 23:00N 51°07' E 001°20'611.4
2017-Apr-19 22:31N 51°05' E 001°29'917.6
2017-Apr-19 22:00N 51°01' E 001°40'714.1
2017-Apr-19 21:30N 50°58' E 001°51'0 0.1
2017-Apr-19 20:59N 50°58' E 001°51'0 0.2
2017-Apr-19 20:28N 50°58' E 001°51'715.8
2017-Apr-19 20:01N 50°59' E 001°39'919.0
2017-Apr-19 19:31N 51°04' E 001°27'5 9.0
2017-Apr-19 18:55N 51°07' E 001°20'0 0.0
2017-Apr-19 18:23N 51°07' E 001°20'3 7.1
2017-Apr-19 18:00N 51°07' E 001°24'1019.4
2017-Apr-19 17:30N 51°02' E 001°38'917.3
2017-Apr-19 17:01N 50°58' E 001°50'1 1.4
2017-Apr-19 16:30N 50°58' E 001°51'0 0.0
2017-Apr-19 15:59N 50°58' E 001°51'613.6
2017-Apr-19 15:31N 50°58' E 001°41'1019.4
2017-Apr-19 15:00N 51°03' E 001°27'611.7
2017-Apr-19 14:29N 51°07' E 001°20'2 1.8
2017-Apr-19 13:30N 51°07' E 001°23'917.7
2017-Apr-19 13:00N 51°02' E 001°35'917.5
2017-Apr-19 12:30N 50°58' E 001°47'3 4.6
2017-Apr-19 11:57N 50°58' E 001°51'0 0.0
2017-Apr-19 11:29N 50°58' E 001°51'612.2
2017-Apr-19 11:00N 50°58' E 001°42'918.2
2017-Apr-19 10:30N 51°04' E 001°31'7 5.5
2017-Apr-19 09:10N 51°07' E 001°20'1 8.2
2017-Apr-19 09:01N 51°07' E 001°22'918.5
2017-Apr-19 08:30N 51°02' E 001°35'918.4
2017-Apr-19 08:01N 50°58' E 001°48'2 3.8
2017-Apr-19 07:28N 50°58' E 001°51'0 0.0
2017-Apr-19 06:58N 50°58' E 001°51'612.8
2017-Apr-19 06:30N 50°58' E 001°42'917.6
2017-Apr-19 06:00N 51°03' E 001°30'810.4
2017-Apr-19 05:17N 51°07' E 001°20'0 0.0
2017-Apr-19 04:38N 51°07' E 001°20'0 0.0
2017-Apr-19 04:29N 51°07' E 001°20'0 0.1
2017-Apr-19 03:59N 51°07' E 001°20'714.4
2017-Apr-19 03:31N 51°05' E 001°30'918.6
2017-Apr-19 03:01N 50°59' E 001°42'611.2
2017-Apr-19 02:30N 50°58' E 001°51'0 0.0
2017-Apr-19 01:59N 50°58' E 001°51'0 0.0
2017-Apr-19 01:30N 50°58' E 001°51'4 7.7
2017-Apr-19 01:00N 50°58' E 001°45'917.6
2017-Apr-19 00:30N 51°01' E 001°32'918.1
2017-Apr-19 00:00N 51°06' E 001°20'1 1.9
2017-Apr-18 23:28N 51°07' E 001°20'0 0.3
2017-Apr-18 23:00N 51°07' E 001°20'918.2
2017-Apr-18 22:31N 51°05' E 001°34'816.1
2017-Apr-18 22:00N 50°59' E 001°43'510.6
2017-Apr-18 21:30N 50°58' E 001°51'0 0.0
2017-Apr-18 20:58N 50°58' E 001°51'1 1.6
2017-Apr-18 20:30N 50°58' E 001°50'816.6
2017-Apr-18 20:00N 50°59' E 001°37'918.2
2017-Apr-18 19:31N 51°04' E 001°25'4 7.2
2017-Apr-18 18:53N 51°07' E 001°20'0 0.0
2017-Apr-18 18:30N 51°07' E 001°20'3 5.9
2017-Apr-18 18:00N 51°07' E 001°25'917.5
2017-Apr-18 17:30N 51°03' E 001°37'816.4
2017-Apr-18 17:01N 50°58' E 001°48'2 4.1
2017-Apr-18 16:29N 50°58' E 001°51'0 0.1
2017-Apr-18 16:00N 50°58' E 001°51'816.6
2017-Apr-18 15:30N 50°60' E 001°38'1019.4
2017-Apr-18 15:00N 51°05' E 001°25'4 8.4
2017-Apr-18 14:30N 51°07' E 001°20'2 1.7
2017-Apr-18 13:31N 51°07' E 001°23'918.5
2017-Apr-18 13:00N 51°02' E 001°35'917.9
2017-Apr-18 12:31N 50°58' E 001°48'2 3.3
2017-Apr-18 11:57N 50°58' E 001°51'0 0.0
2017-Apr-18 11:30N 50°58' E 001°51'0 0.0
2017-Apr-18 10:59N 50°58' E 001°51'0 0.0
2017-Apr-18 10:26N 50°58' E 001°51'0 0.0
2017-Apr-18 09:59N 50°58' E 001°51'0 0.0
2017-Apr-18 09:30N 50°58' E 001°51'0 0.0
2017-Apr-18 09:01N 50°58' E 001°51'0 0.0
2017-Apr-18 08:29N 50°58' E 001°51'0 0.0
2017-Apr-18 07:59N 50°58' E 001°51'0 0.0
2017-Apr-18 07:30N 50°58' E 001°51'0 0.0
2017-Apr-18 07:00N 50°58' E 001°51'4 9.0
2017-Apr-18 06:30N 50°58' E 001°44'918.5
2017-Apr-18 06:01N 51°03' E 001°31'8 4.8
2017-Apr-18 04:14N 51°07' E 001°20'2 8.3
2017-Apr-18 04:01N 51°07' E 001°23'917.6
2017-Apr-18 03:31N 51°02' E 001°35'816.8
2017-Apr-18 03:01N 50°58' E 001°47'3 5.6
2017-Apr-18 02:30N 50°58' E 001°51'0 0.0
2017-Apr-18 01:59N 50°58' E 001°51'0 0.0
2017-Apr-18 01:30N 50°58' E 001°51'1 2.9
2017-Apr-18 01:00N 50°58' E 001°49'918.6
2017-Apr-18 00:30N 50°59' E 001°34'1019.2
2017-Apr-18 00:00N 51°06' E 001°23'2 4.6
2017-Apr-17 23:30N 51°07' E 001°20'0 0.3
2017-Apr-17 23:00N 51°07' E 001°20'714.9
2017-Apr-17 22:30N 51°04' E 001°31'917.3
2017-Apr-17 22:00N 50°59' E 001°42'611.1
2017-Apr-17 21:30N 50°58' E 001°51'0 0.0
2017-Apr-17 20:59N 50°58' E 001°51'4 9.2
2017-Apr-17 20:30N 50°58' E 001°44'918.2
2017-Apr-17 20:00N 51°02' E 001°31'916.8
2017-Apr-17 19:29N 51°07' E 001°20'0 0.0
2017-Apr-17 18:49N 51°07' E 001°20'1 3.3
2017-Apr-17 18:30N 51°07' E 001°22'918.4
2017-Apr-17 18:00N 51°04' E 001°35'918.3
2017-Apr-17 17:30N 50°58' E 001°46'3 5.9
2017-Apr-17 16:59N 50°58' E 001°51'0 0.0
2017-Apr-17 16:29N 50°58' E 001°51'2 3.9
2017-Apr-17 16:00N 50°58' E 001°48'918.1
2017-Apr-17 15:30N 51°01' E 001°35'1018.9
2017-Apr-17 15:00N 51°07' E 001°22'1 2.6
2017-Apr-17 14:27N 51°07' E 001°20'7 6.9
2017-Apr-17 13:30N 51°05' E 001°30'918.7
2017-Apr-17 13:01N 50°59' E 001°42'611.4
2017-Apr-17 12:29N 50°58' E 001°51'0 0.0
2017-Apr-17 12:00N 50°58' E 001°51'1 1.8
2017-Apr-17 11:31N 50°58' E 001°50'816.3
2017-Apr-17 11:01N 50°60' E 001°37'918.4
2017-Apr-17 10:30N 51°05' E 001°25'4 7.1
2017-Apr-17 09:58N 51°07' E 001°20'0 0.0
2017-Apr-17 09:21N 51°07' E 001°20'2 6.4
2017-Apr-17 09:00N 51°06' E 001°23'918.1
2017-Apr-17 08:30N 51°02' E 001°35'917.7
2017-Apr-17 08:01N 50°58' E 001°48'2 3.3
2017-Apr-17 07:30N 50°58' E 001°51'0 0.0
2017-Apr-17 06:59N 50°58' E 001°51'4 8.2
2017-Apr-17 06:31N 50°58' E 001°45'918.5
2017-Apr-17 06:00N 51°02' E 001°32'9 5.2
2017-Apr-17 04:15N 51°07' E 001°20'1 5.2
2017-Apr-17 04:00N 51°07' E 001°22'715.0
2017-Apr-17 03:30N 51°04' E 001°33'714.9
2017-Apr-17 03:01N 50°60' E 001°43'610.6
2017-Apr-17 02:29N 50°58' E 001°51'0 0.0
2017-Apr-17 01:59N 50°58' E 001°51'0 0.0
2017-Apr-17 01:30N 50°58' E 001°51'1 3.0
2017-Apr-17 01:00N 50°58' E 001°49'917.4
2017-Apr-17 00:30N 50°60' E 001°35'817.0
2017-Apr-17 00:00N 51°05' E 001°25'4 6.8
2017-Apr-16 23:28N 51°07' E 001°20'0 0.3
2017-Apr-16 23:00N 51°07' E 001°20'714.3
2017-Apr-16 22:31N 51°04' E 001°30'919.0
2017-Apr-16 22:01N 50°59' E 001°43'510.4
2017-Apr-16 21:30N 50°58' E 001°51'0 0.0
2017-Apr-16 20:58N 50°58' E 001°51'0 0.0
2017-Apr-16 20:30N 50°58' E 001°51'611.7
2017-Apr-16 20:01N 50°58' E 001°42'918.8
2017-Apr-16 19:30N 51°04' E 001°30'713.6
2017-Apr-16 19:00N 51°07' E 001°20'0 0.0
2017-Apr-16 18:22N 51°07' E 001°20'3 8.7
2017-Apr-16 18:01N 51°07' E 001°25'917.9
2017-Apr-16 17:31N 51°02' E 001°37'816.7
2017-Apr-16 17:01N 50°58' E 001°49'1 2.6
2017-Apr-16 16:30N 50°58' E 001°51'0 0.0
2017-Apr-16 16:00N 50°58' E 001°51'510.9
2017-Apr-16 15:30N 50°58' E 001°43'817.0
2017-Apr-16 15:00N 51°02' E 001°30'9 8.6
2017-Apr-16 14:00N 51°07' E 001°20'3 6.0
2017-Apr-16 13:30N 51°07' E 001°25'918.5
2017-Apr-16 13:00N 51°01' E 001°36'816.9
2017-Apr-16 12:30N 50°58' E 001°49'1 2.4
2017-Apr-16 11:59N 50°58' E 001°51'0 0.0
2017-Apr-16 11:29N 50°58' E 001°51'611.8
2017-Apr-16 11:01N 50°58' E 001°42'918.7
2017-Apr-16 10:31N 51°03' E 001°29'7 7.8
2017-Apr-16 09:34N 51°07' E 001°20'0 0.0
2017-Apr-16 09:30N 51°07' E 001°20'0 0.7
2017-Apr-16 09:01N 51°07' E 001°21'917.8
2017-Apr-16 08:30N 51°03' E 001°33'1019.0
2017-Apr-16 08:00N 50°58' E 001°46'3 6.4
2017-Apr-16 07:30N 50°58' E 001°51'0 0.6
2017-Apr-16 07:00N 50°58' E 001°51'815.5
2017-Apr-16 06:30N 50°59' E 001°39'917.9
2017-Apr-16 06:00N 51°04' E 001°26'5 3.6
2017-Apr-16 04:31N 51°07' E 001°20'0 0.0
2017-Apr-16 04:23N 51°07' E 001°20'3 8.0
2017-Apr-16 04:01N 51°07' E 001°25'816.1
2017-Apr-16 03:30N 51°03' E 001°36'815.2
2017-Apr-16 03:00N 50°58' E 001°45'4 6.4
2017-Apr-16 02:28N 50°58' E 001°51'0 0.0
2017-Apr-16 01:59N 50°58' E 001°51'0 0.0
2017-Apr-16 01:29N 50°58' E 001°51'1 1.1
2017-Apr-16 00:56N 50°58' E 001°50'819.3
2017-Apr-16 00:30N 50°59' E 001°37'1019.5
2017-Apr-16 00:00N 51°05' E 001°25'4 8.0
2017-Apr-15 23:30N 51°07' E 001°20'0 0.3
2017-Apr-15 23:00N 51°07' E 001°20'815.0
2017-Apr-15 22:30N 51°04' E 001°31'816.8
2017-Apr-15 22:01N 50°59' E 001°42'611.7
2017-Apr-15 21:30N 50°58' E 001°51'0 0.0
2017-Apr-15 21:00N 50°58' E 001°51'1 2.8
2017-Apr-15 20:30N 50°58' E 001°49'815.6
2017-Apr-15 20:00N 50°59' E 001°37'815.4
2017-Apr-15 19:31N 51°04' E 001°27'6 8.7
2017-Apr-15 18:52N 51°07' E 001°20'0 0.0
2017-Apr-15 18:27N 51°07' E 001°20'410.2
2017-Apr-15 18:00N 51°06' E 001°27'1019.2
2017-Apr-15 17:30N 51°00' E 001°39'816.0
2017-Apr-15 17:00N 50°58' E 001°51'0 0.2
2017-Apr-15 16:30N 50°58' E 001°51'0 0.0
2017-Apr-15 16:01N 50°58' E 001°51'612.5
2017-Apr-15 15:30N 50°58' E 001°42'1019.5
2017-Apr-15 15:01N 51°04' E 001°28'610.1
2017-Apr-15 14:22N 51°07' E 001°20'3 3.6
2017-Apr-15 13:30N 51°07' E 001°25'1717.3
2017-Apr-15 12:30N 50°58' E 001°49'1 2.6
2017-Apr-15 11:59N 50°58' E 001°51'0 0.0
2017-Apr-15 11:28N 50°58' E 001°51'612.8
2017-Apr-15 11:00N 50°58' E 001°42'918.5
2017-Apr-15 10:31N 51°03' E 001°30'7 6.2
2017-Apr-15 09:20N 51°07' E 001°20'2 6.1
2017-Apr-15 09:00N 51°07' E 001°23'919.0
2017-Apr-15 08:30N 51°02' E 001°36'918.2
2017-Apr-15 08:00N 50°58' E 001°49'1 2.1
2017-Apr-15 07:30N 50°58' E 001°51'0 0.0
2017-Apr-15 07:00N 50°58' E 001°51'612.3
2017-Apr-15 06:31N 50°58' E 001°41'918.7
2017-Apr-15 06:00N 51°03' E 001°28'713.1
2017-Apr-15 05:29N 51°07' E 001°20'0 0.0
2017-Apr-15 04:51N 51°07' E 001°20'0 0.2
2017-Apr-15 04:21N 51°07' E 001°20'411.9
2017-Apr-15 04:00N 51°07' E 001°27'917.5
2017-Apr-15 03:30N 51°02' E 001°39'815.7
2017-Apr-15 03:00N 50°58' E 001°50'1 2.5
2017-Apr-15 02:30N 50°58' E 001°51'0 0.0
2017-Apr-15 02:00N 50°58' E 001°51'0 0.0
2017-Apr-15 01:30N 50°58' E 001°51'0 0.7
2017-Apr-15 01:00N 50°58' E 001°51'816.5
2017-Apr-15 00:31N 51°01' E 001°38'1019.2
2017-Apr-15 00:00N 51°05' E 001°25'4 7.0
2017-Apr-14 23:29N 51°07' E 001°20'0 0.3
2017-Apr-14 22:59N 51°07' E 001°20'714.4
2017-Apr-14 22:30N 51°05' E 001°30'918.8
2017-Apr-14 22:00N 50°59' E 001°42'611.1
2017-Apr-14 21:30N 50°58' E 001°51'0 0.0
2017-Apr-14 21:00N 50°58' E 001°51'0 0.6
2017-Apr-14 20:30N 50°58' E 001°51'815.7
2017-Apr-14 20:00N 50°59' E 001°38'918.4
2017-Apr-14 19:31N 51°04' E 001°26'5 9.4
2017-Apr-14 18:57N 51°07' E 001°20'0 0.0
2017-Apr-14 18:30N 51°07' E 001°20'510.5
2017-Apr-14 18:00N 51°06' E 001°28'815.9
2017-Apr-14 17:30N 51°02' E 001°38'817.0
2017-Apr-14 17:00N 50°58' E 001°51'0 0.7
2017-Apr-14 16:30N 50°58' E 001°51'2 4.3
2017-Apr-14 16:01N 50°58' E 001°48'918.8
2017-Apr-14 15:30N 51°01' E 001°33'1019.1
2017-Apr-14 15:00N 51°06' E 001°21'1 2.2
2017-Apr-14 14:30N 51°07' E 001°20'0 0.0
2017-Apr-14 14:00N 51°07' E 001°20'510.5
2017-Apr-14 13:31N 51°07' E 001°28'917.0
2017-Apr-14 13:01N 51°02' E 001°39'815.5
2017-Apr-14 12:31N 50°58' E 001°50'1 1.8
2017-Apr-14 12:00N 50°58' E 001°51'0 0.0
2017-Apr-14 11:30N 50°58' E 001°51'714.4
2017-Apr-14 11:00N 50°59' E 001°40'918.7
2017-Apr-14 10:30N 51°04' E 001°27'6 9.6
2017-Apr-14 09:55N 51°07' E 001°20'0 0.1
2017-Apr-14 09:17N 51°07' E 001°20'311.8
2017-Apr-14 09:01N 51°06' E 001°25'918.6
2017-Apr-14 08:30N 51°01' E 001°38'917.5
2017-Apr-14 08:01N 50°58' E 001°50'0 0.8
2017-Apr-14 07:31N 50°58' E 001°51'0 0.0
2017-Apr-14 07:00N 50°58' E 001°51'713.2
2017-Apr-14 06:30N 50°58' E 001°40'918.1
2017-Apr-14 06:00N 51°03' E 001°28'713.4
2017-Apr-14 05:30N 51°07' E 001°20'0 0.0
2017-Apr-14 04:50N 51°07' E 001°20'0 0.0
2017-Apr-14 04:18N 51°07' E 001°20'2 7.4
2017-Apr-14 04:01N 51°07' E 001°24'815.5
2017-Apr-14 03:31N 51°04' E 001°35'917.3
2017-Apr-14 03:01N 50°58' E 001°45'  
Track history (hours):
 
Tides and Currents Weather Stations Pressure Air Temp Water Temp Dewpoint Dewpoint Depression Visibility Wind Speed Wind Dir Waves Ship Positions

Pride Of Canterbury

Operator: P & O Ferries

Last reported at 2017-Apr-24 03:00 UTC. Time now 2017-Apr-24 03:23 UTC.
Position N 50°58' E 001°45'.

Length 180 m; draft 5.7 m.

Type: Passenger vessel. MMSI: 232001060.

Date/timePositionNaut miles runAvg speedWind from/ knotsBaromVisibWave heightAir tempDewpointWater temp
2017-Apr-24 03:00N 50°58' E 001°45'4 8.7
2017-Apr-24 02:30N 50°58' E 001°51'0 0.0
2017-Apr-24 02:00N 50°58' E 001°51'0 0.0
2017-Apr-24 01:30N 50°58' E 001°51'5 9.0
2017-Apr-24 00:59N 50°58' E 001°44'918.0
2017-Apr-24 00:30N 50°60' E 001°31'919.0
2017-Apr-24 00:00N 51°07' E 001°20'1 1.8
2017-Apr-23 23:30N 51°07' E 001°20'0 0.2
2017-Apr-23 22:58N 51°07' E 001°20'715.6
2017-Apr-23 22:30N 51°05' E 001°31'918.1
2017-Apr-23 22:00N 50°59' E 001°42'611.2
2017-Apr-23 21:30N 50°58' E 001°51'0 0.0
2017-Apr-23 20:59N 50°58' E 001°51'0 0.4
2017-Apr-23 20:30N 50°58' E 001°51'918.5
2017-Apr-23 20:00N 50°60' E 001°36'815.4
2017-Apr-23 19:30N 51°04' E 001°26'5 9.1
2017-Apr-23 18:56N 51°07' E 001°20'0 0.0
2017-Apr-23 18:28N 51°07' E 001°20'2 4.2
2017-Apr-23 18:00N 51°07' E 001°23'817.0
2017-Apr-23 17:31N 51°03' E 001°35'816.2
2017-Apr-23 17:00N 50°58' E 001°45'4 7.3
2017-Apr-23 16:30N 50°58' E 001°51'0 0.0
2017-Apr-23 16:00N 50°58' E 001°51'510.0
2017-Apr-23 15:31N 50°58' E 001°43'917.8
2017-Apr-23 15:00N 51°01' E 001°30'9 8.4
2017-Apr-23 13:59N 51°07' E 001°20'1 2.2
2017-Apr-23 13:31N 51°07' E 001°21'918.1
2017-Apr-23 13:01N 51°03' E 001°34'918.3
2017-Apr-23 12:30N 50°58' E 001°47'3 5.2
2017-Apr-23 11:59N 50°58' E 001°51'0 0.0
2017-Apr-23 11:30N 50°58' E 001°51'613.2
2017-Apr-23 11:01N 50°59' E 001°41'918.9
2017-Apr-23 10:30N 51°04' E 001°28'611.1
2017-Apr-23 09:57N 51°07' E 001°20'0 0.0
2017-Apr-23 09:29N 51°07' E 001°20'0 0.0
2017-Apr-23 09:00N 51°07' E 001°20'0 0.0
2017-Apr-23 08:30N 51°07' E 001°20'0 0.0
2017-Apr-23 07:59N 51°07' E 001°20'0 0.0
2017-Apr-23 07:28N 51°07' E 001°20'0 0.0
2017-Apr-23 06:53N 51°07' E 001°20'0 0.0
2017-Apr-23 06:30N 51°07' E 001°20'0 0.0
2017-Apr-23 06:00N 51°07' E 001°20'0 0.0
2017-Apr-23 05:29N 51°07' E 001°20'0 0.0
2017-Apr-23 04:59N 51°07' E 001°20'0 0.0
2017-Apr-23 04:17N 51°07' E 001°20'0 0.0
2017-Apr-23 04:00N 51°07' E 001°20'0 0.0
2017-Apr-23 03:28N 51°07' E 001°20'0 0.0
2017-Apr-23 02:12N 51°07' E 001°20'0 0.0
2017-Apr-23 01:59N 51°07' E 001°20'0 0.0
2017-Apr-23 01:29N 51°07' E 001°20'0 0.0
2017-Apr-23 00:47N 51°07' E 001°20'0 0.0
2017-Apr-23 00:29N 51°07' E 001°20'0 0.0
2017-Apr-22 23:59N 51°07' E 001°20'0 0.0
2017-Apr-22 23:30N 51°07' E 001°20'0 0.0
2017-Apr-22 22:58N 51°07' E 001°20'0 0.0
2017-Apr-22 22:29N 51°07' E 001°20'0 0.0
2017-Apr-22 22:00N 51°07' E 001°20'0 0.0
2017-Apr-22 21:26N 51°07' E 001°20'0 0.0
2017-Apr-22 20:03N 51°07' E 001°20'0 0.0
2017-Apr-22 19:54N 51°07' E 001°20'0 0.0
2017-Apr-22 19:26N 51°07' E 001°20'0 0.0
2017-Apr-22 19:00N 51°07' E 001°20'0 0.0
2017-Apr-22 18:28N 51°07' E 001°20'3 5.7
2017-Apr-22 18:01N 51°07' E 001°24'918.1
2017-Apr-22 17:31N 51°02' E 001°36'917.3
2017-Apr-22 17:01N 50°58' E 001°49'1 2.8
2017-Apr-22 16:31N 50°58' E 001°51'0 0.0
2017-Apr-22 16:00N 50°58' E 001°51'612.7
2017-Apr-22 15:30N 50°58' E 001°41'918.2
2017-Apr-22 15:00N 51°04' E 001°29'712.0
2017-Apr-22 14:26N 51°07' E 001°20'3 3.1
2017-Apr-22 13:31N 51°06' E 001°24'917.9
2017-Apr-22 13:01N 51°02' E 001°37'917.2
2017-Apr-22 12:31N 50°58' E 001°49'1 2.4
2017-Apr-22 11:58N 50°58' E 001°51'0 0.0
2017-Apr-22 11:30N 50°58' E 001°51'612.5
2017-Apr-22 11:01N 50°59' E 001°41'1019.4
2017-Apr-22 10:30N 51°04' E 001°28'6 4.6
2017-Apr-22 09:09N 51°07' E 001°20'110.0
2017-Apr-22 09:01N 51°07' E 001°23'918.7
2017-Apr-22 08:31N 51°02' E 001°35'917.6
2017-Apr-22 08:01N 50°58' E 001°48'2 3.6
2017-Apr-22 07:24N 50°58' E 001°51'0 0.0
2017-Apr-22 07:00N 50°58' E 001°51'612.3
2017-Apr-22 06:30N 50°58' E 001°42'918.9
2017-Apr-22 06:00N 51°03' E 001°29'7 3.4
2017-Apr-22 04:00N 51°07' E 001°20'713.3
2017-Apr-22 03:30N 51°05' E 001°30'1020.0
2017-Apr-22 03:00N 50°59' E 001°43'510.6
2017-Apr-22 02:30N 50°58' E 001°51'0 0.0
2017-Apr-22 02:00N 50°58' E 001°51'0 0.0
2017-Apr-22 01:28N 50°58' E 001°51'612.7
2017-Apr-22 01:01N 50°58' E 001°42'918.8
2017-Apr-22 00:31N 51°03' E 001°29'712.1
2017-Apr-21 23:55N 51°07' E 001°20'0 0.0
2017-Apr-21 23:27N 51°07' E 001°20'0 0.4
2017-Apr-21 22:59N 51°07' E 001°20'816.2
2017-Apr-21 22:30N 51°05' E 001°32'918.5
2017-Apr-21 22:00N 50°59' E 001°43'5 9.9
2017-Apr-21 21:30N 50°58' E 001°51'0 0.0
2017-Apr-21 21:00N 50°58' E 001°51'4 7.3
2017-Apr-21 20:30N 50°58' E 001°45'918.1
2017-Apr-21 20:00N 51°02' E 001°33'917.7
2017-Apr-21 19:30N 51°07' E 001°21'1 1.2
2017-Apr-21 18:58N 51°07' E 001°20'0 0.0
2017-Apr-21 18:30N 51°07' E 001°20'2 4.3
2017-Apr-21 18:00N 51°07' E 001°23'917.5
2017-Apr-21 17:30N 51°02' E 001°35'816.9
2017-Apr-21 17:01N 50°58' E 001°47'3 5.3
2017-Apr-21 16:30N 50°58' E 001°51'0 0.0
2017-Apr-21 16:00N 50°58' E 001°51'715.1
2017-Apr-21 15:31N 50°59' E 001°39'1019.3
2017-Apr-21 15:00N 51°04' E 001°26'5 8.7
2017-Apr-21 14:25N 51°07' E 001°20'3 3.2
2017-Apr-21 13:30N 51°07' E 001°25'917.0
2017-Apr-21 13:00N 51°03' E 001°37'917.3
2017-Apr-21 12:30N 50°58' E 001°48'2 3.5
2017-Apr-21 12:00N 50°58' E 001°51'0 0.0
2017-Apr-21 11:31N 50°58' E 001°51'510.5
2017-Apr-21 11:00N 50°58' E 001°43'918.7
2017-Apr-21 10:30N 51°03' E 001°30'8 5.5
2017-Apr-21 09:07N 51°07' E 001°20'1 8.4
2017-Apr-21 09:00N 51°07' E 001°22'918.1
2017-Apr-21 08:31N 51°03' E 001°34'917.9
2017-Apr-21 08:00N 50°58' E 001°46'3 5.8
2017-Apr-21 07:30N 50°58' E 001°51'0 0.0
2017-Apr-21 07:01N 50°58' E 001°51'612.6
2017-Apr-21 06:30N 50°58' E 001°41'1020.0
2017-Apr-21 06:00N 51°04' E 001°28'6 3.2
2017-Apr-21 04:10N 51°07' E 001°20'0 1.8
2017-Apr-21 04:00N 51°07' E 001°21'714.4
2017-Apr-21 03:31N 51°05' E 001°31'816.6
2017-Apr-21 03:00N 50°60' E 001°42'612.1
2017-Apr-21 02:30N 50°58' E 001°51'0 0.0
2017-Apr-21 01:59N 50°58' E 001°51'0 0.0
2017-Apr-21 01:29N 50°58' E 001°51'3 5.7
2017-Apr-21 01:01N 50°58' E 001°47'816.9
2017-Apr-21 00:31N 50°60' E 001°34'918.0
2017-Apr-21 00:01N 51°06' E 001°23'3 5.0
2017-Apr-20 23:30N 51°07' E 001°20'0 0.1
2017-Apr-20 23:00N 51°07' E 001°20'713.7
2017-Apr-20 22:31N 51°05' E 001°30'918.6
2017-Apr-20 22:01N 50°59' E 001°42'611.2
2017-Apr-20 21:30N 50°58' E 001°51'0 0.0
2017-Apr-20 21:00N 50°58' E 001°51'1 2.9
2017-Apr-20 20:30N 50°58' E 001°49'714.3
2017-Apr-20 20:00N 50°60' E 001°38'1019.2
2017-Apr-20 19:30N 51°05' E 001°25'4 6.2
2017-Apr-20 18:53N 51°07' E 001°20'0 0.1
2017-Apr-20 18:20N 51°07' E 001°20'3 8.3
2017-Apr-20 18:00N 51°07' E 001°24'917.6
2017-Apr-20 17:30N 51°03' E 001°37'816.7
2017-Apr-20 17:00N 50°58' E 001°48'2 3.8
2017-Apr-20 16:30N 50°58' E 001°51'0 0.0
2017-Apr-20 15:57N 50°58' E 001°51'715.6
2017-Apr-20 15:31N 50°59' E 001°40'1019.4
2017-Apr-20 15:01N 51°05' E 001°28'610.6
2017-Apr-20 14:28N 51°07' E 001°20'2 2.2
2017-Apr-20 13:30N 51°07' E 001°23'917.9
2017-Apr-20 13:00N 51°02' E 001°36'917.3
2017-Apr-20 12:30N 50°58' E 001°48'2 4.2
2017-Apr-20 12:00N 50°58' E 001°51'0 0.0
2017-Apr-20 11:28N 50°58' E 001°51'511.6
2017-Apr-20 11:00N 50°58' E 001°42'918.4
2017-Apr-20 10:30N 51°03' E 001°30'8 5.7
2017-Apr-20 09:12N 51°07' E 001°20'211.7
2017-Apr-20 09:00N 51°07' E 001°24'918.0
2017-Apr-20 08:30N 51°03' E 001°36'917.7
2017-Apr-20 08:00N 50°58' E 001°48'2 3.4
2017-Apr-20 07:30N 50°58' E 001°51'0 0.0
2017-Apr-20 07:00N 50°58' E 001°51'5 9.3
2017-Apr-20 06:31N 50°58' E 001°44'1019.4
2017-Apr-20 06:01N 51°03' E 001°30'8 4.3
2017-Apr-20 04:12N 51°07' E 001°20'1 3.0
2017-Apr-20 04:00N 51°07' E 001°21'815.9
2017-Apr-20 03:30N 51°05' E 001°33'817.0
2017-Apr-20 03:00N 50°59' E 001°43'510.4
2017-Apr-20 02:30N 50°58' E 001°51'0 0.0
2017-Apr-20 02:00N 50°58' E 001°51'0 0.0
2017-Apr-20 01:30N 50°58' E 001°51'1 2.6
2017-Apr-20 01:00N 50°58' E 001°49'917.5
2017-Apr-20 00:30N 50°60' E 001°36'1019.6
2017-Apr-20 00:01N 51°06' E 001°24'3 5.3
2017-Apr-19 23:29N 51°07' E 001°20'0 0.1
2017-Apr-19 23:00N 51°07' E 001°20'611.4
2017-Apr-19 22:31N 51°05' E 001°29'917.6
2017-Apr-19 22:00N 51°01' E 001°40'714.1
2017-Apr-19 21:30N 50°58' E 001°51'0 0.1
2017-Apr-19 20:59N 50°58' E 001°51'0 0.2
2017-Apr-19 20:28N 50°58' E 001°51'715.8
2017-Apr-19 20:01N 50°59' E 001°39'919.0
2017-Apr-19 19:31N 51°04' E 001°27'5 9.0
2017-Apr-19 18:55N 51°07' E 001°20'0 0.0
2017-Apr-19 18:23N 51°07' E 001°20'3 7.1
2017-Apr-19 18:00N 51°07' E 001°24'1019.4
2017-Apr-19 17:30N 51°02' E 001°38'917.3
2017-Apr-19 17:01N 50°58' E 001°50'1 1.4
2017-Apr-19 16:30N 50°58' E 001°51'0 0.0
2017-Apr-19 15:59N 50°58' E 001°51'613.6
2017-Apr-19 15:31N 50°58' E 001°41'1019.4
2017-Apr-19 15:00N 51°03' E 001°27'611.7
2017-Apr-19 14:29N 51°07' E 001°20'2 1.8
2017-Apr-19 13:30N 51°07' E 001°23'917.7
2017-Apr-19 13:00N 51°02' E 001°35'917.5
2017-Apr-19 12:30N 50°58' E 001°47'3 4.6
2017-Apr-19 11:57N 50°58' E 001°51'0 0.0
2017-Apr-19 11:29N 50°58' E 001°51'612.2
2017-Apr-19 11:00N 50°58' E 001°42'918.2
2017-Apr-19 10:30N 51°04' E 001°31'7 5.5
2017-Apr-19 09:10N 51°07' E 001°20'1 8.2
2017-Apr-19 09:01N 51°07' E 001°22'918.5
2017-Apr-19 08:30N 51°02' E 001°35'918.4
2017-Apr-19 08:01N 50°58' E 001°48'2 3.8
2017-Apr-19 07:28N 50°58' E 001°51'0 0.0
2017-Apr-19 06:58N 50°58' E 001°51'612.8
2017-Apr-19 06:30N 50°58' E 001°42'917.6
2017-Apr-19 06:00N 51°03' E 001°30'810.4
2017-Apr-19 05:17N 51°07' E 001°20'0 0.0
2017-Apr-19 04:38N 51°07' E 001°20'0 0.0
2017-Apr-19 04:29N 51°07' E 001°20'0 0.1
2017-Apr-19 03:59N 51°07' E 001°20'714.4
2017-Apr-19 03:31N 51°05' E 001°30'918.6
2017-Apr-19 03:01N 50°59' E 001°42'611.2
2017-Apr-19 02:30N 50°58' E 001°51'0 0.0
2017-Apr-19 01:59N 50°58' E 001°51'0 0.0
2017-Apr-19 01:30N 50°58' E 001°51'4 7.7
2017-Apr-19 01:00N 50°58' E 001°45'917.6
2017-Apr-19 00:30N 51°01' E 001°32'918.1
2017-Apr-19 00:00N 51°06' E 001°20'1 1.9
2017-Apr-18 23:28N 51°07' E 001°20'0 0.3
2017-Apr-18 23:00N 51°07' E 001°20'918.2
2017-Apr-18 22:31N 51°05' E 001°34'816.1
2017-Apr-18 22:00N 50°59' E 001°43'510.6
2017-Apr-18 21:30N 50°58' E 001°51'0 0.0
2017-Apr-18 20:58N 50°58' E 001°51'1 1.6
2017-Apr-18 20:30N 50°58' E 001°50'816.6
2017-Apr-18 20:00N 50°59' E 001°37'918.2
2017-Apr-18 19:31N 51°04' E 001°25'4 7.2
2017-Apr-18 18:53N 51°07' E 001°20'0 0.0
2017-Apr-18 18:30N 51°07' E 001°20'3 5.9
2017-Apr-18 18:00N 51°07' E 001°25'917.5
2017-Apr-18 17:30N 51°03' E 001°37'816.4
2017-Apr-18 17:01N 50°58' E 001°48'2 4.1
2017-Apr-18 16:29N 50°58' E 001°51'0 0.1
2017-Apr-18 16:00N 50°58' E 001°51'816.6
2017-Apr-18 15:30N 50°60' E 001°38'1019.4
2017-Apr-18 15:00N 51°05' E 001°25'4 8.4
2017-Apr-18 14:30N 51°07' E 001°20'2 1.7
2017-Apr-18 13:31N 51°07' E 001°23'918.5
2017-Apr-18 13:00N 51°02' E 001°35'917.9
2017-Apr-18 12:31N 50°58' E 001°48'2 3.3
2017-Apr-18 11:57N 50°58' E 001°51'0 0.0
2017-Apr-18 11:30N 50°58' E 001°51'0 0.0
2017-Apr-18 10:59N 50°58' E 001°51'0 0.0
2017-Apr-18 10:26N 50°58' E 001°51'0 0.0
2017-Apr-18 09:59N 50°58' E 001°51'0 0.0
2017-Apr-18 09:30N 50°58' E 001°51'0 0.0
2017-Apr-18 09:01N 50°58' E 001°51'0 0.0
2017-Apr-18 08:29N 50°58' E 001°51'0 0.0
2017-Apr-18 07:59N 50°58' E 001°51'0 0.0
2017-Apr-18 07:30N 50°58' E 001°51'0 0.0
2017-Apr-18 07:00N 50°58' E 001°51'4 9.0
2017-Apr-18 06:30N 50°58' E 001°44'918.5
2017-Apr-18 06:01N 51°03' E 001°31'8 4.8
2017-Apr-18 04:14N 51°07' E 001°20'2 8.3
2017-Apr-18 04:01N 51°07' E 001°23'917.6
2017-Apr-18 03:31N 51°02' E 001°35'816.8
2017-Apr-18 03:01N 50°58' E 001°47'3 5.6
2017-Apr-18 02:30N 50°58' E 001°51'0 0.0
2017-Apr-18 01:59N 50°58' E 001°51'0 0.0
2017-Apr-18 01:30N 50°58' E 001°51'1 2.9
2017-Apr-18 01:00N 50°58' E 001°49'918.6
2017-Apr-18 00:30N 50°59' E 001°34'1019.2
2017-Apr-18 00:00N 51°06' E 001°23'2 4.6
2017-Apr-17 23:30N 51°07' E 001°20'0 0.3
2017-Apr-17 23:00N 51°07' E 001°20'714.9
2017-Apr-17 22:30N 51°04' E 001°31'917.3
2017-Apr-17 22:00N 50°59' E 001°42'611.1
2017-Apr-17 21:30N 50°58' E 001°51'0 0.0
2017-Apr-17 20:59N 50°58' E 001°51'4 9.2
2017-Apr-17 20:30N 50°58' E 001°44'918.2
2017-Apr-17 20:00N 51°02' E 001°31'916.8
2017-Apr-17 19:29N 51°07' E 001°20'0 0.0
2017-Apr-17 18:49N 51°07' E 001°20'1 3.3
2017-Apr-17 18:30N 51°07' E 001°22'918.4
2017-Apr-17 18:00N 51°04' E 001°35'918.3
2017-Apr-17 17:30N 50°58' E 001°46'3 5.9
2017-Apr-17 16:59N 50°58' E 001°51'0 0.0
2017-Apr-17 16:29N 50°58' E 001°51'2 3.9
2017-Apr-17 16:00N 50°58' E 001°48'918.1
2017-Apr-17 15:30N 51°01' E 001°35'1018.9
2017-Apr-17 15:00N 51°07' E 001°22'1 2.6
2017-Apr-17 14:27N 51°07' E 001°20'7 6.9
2017-Apr-17 13:30N 51°05' E 001°30'918.7
2017-Apr-17 13:01N 50°59' E 001°42'611.4
2017-Apr-17 12:29N 50°58' E 001°51'0 0.0
2017-Apr-17 12:00N 50°58' E 001°51'1 1.8
2017-Apr-17 11:31N 50°58' E 001°50'816.3
2017-Apr-17 11:01N 50°60' E 001°37'918.4
2017-Apr-17 10:30N 51°05' E 001°25'4 7.1
2017-Apr-17 09:58N 51°07' E 001°20'0 0.0
2017-Apr-17 09:21N 51°07' E 001°20'2 6.4
2017-Apr-17 09:00N 51°06' E 001°23'918.1
2017-Apr-17 08:30N 51°02' E 001°35'917.7
2017-Apr-17 08:01N 50°58' E 001°48'2 3.3
2017-Apr-17 07:30N 50°58' E 001°51'0 0.0
2017-Apr-17 06:59N 50°58' E 001°51'4 8.2
2017-Apr-17 06:31N 50°58' E 001°45'918.5
2017-Apr-17 06:00N 51°02' E 001°32'9 5.2
2017-Apr-17 04:15N 51°07' E 001°20'1 5.2
2017-Apr-17 04:00N 51°07' E 001°22'715.0
2017-Apr-17 03:30N 51°04' E 001°33'714.9
2017-Apr-17 03:01N 50°60' E 001°43'610.6
2017-Apr-17 02:29N 50°58' E 001°51'0 0.0
2017-Apr-17 01:59N 50°58' E 001°51'0 0.0
2017-Apr-17 01:30N 50°58' E 001°51'1 3.0
2017-Apr-17 01:00N 50°58' E 001°49'917.4
2017-Apr-17 00:30N 50°60' E 001°35'817.0
2017-Apr-17 00:00N 51°05' E 001°25'4 6.8
2017-Apr-16 23:28N 51°07' E 001°20'0 0.3
2017-Apr-16 23:00N 51°07' E 001°20'714.3
2017-Apr-16 22:31N 51°04' E 001°30'919.0
2017-Apr-16 22:01N 50°59' E 001°43'510.4
2017-Apr-16 21:30N 50°58' E 001°51'0 0.0
2017-Apr-16 20:58N 50°58' E 001°51'0 0.0
2017-Apr-16 20:30N 50°58' E 001°51'611.7
2017-Apr-16 20:01N 50°58' E 001°42'918.8
2017-Apr-16 19:30N 51°04' E 001°30'713.6
2017-Apr-16 19:00N 51°07' E 001°20'0 0.0
2017-Apr-16 18:22N 51°07' E 001°20'3 8.7
2017-Apr-16 18:01N 51°07' E 001°25'917.9
2017-Apr-16 17:31N 51°02' E 001°37'816.7
2017-Apr-16 17:01N 50°58' E 001°49'1 2.6
2017-Apr-16 16:30N 50°58' E 001°51'0 0.0
2017-Apr-16 16:00N 50°58' E 001°51'510.9
2017-Apr-16 15:30N 50°58' E 001°43'817.0
2017-Apr-16 15:00N 51°02' E 001°30'9 8.6
2017-Apr-16 14:00N 51°07' E 001°20'3 6.0
2017-Apr-16 13:30N 51°07' E 001°25'918.5
2017-Apr-16 13:00N 51°01' E 001°36'816.9
2017-Apr-16 12:30N 50°58' E 001°49'1 2.4
2017-Apr-16 11:59N 50°58' E 001°51'0 0.0
2017-Apr-16 11:29N 50°58' E 001°51'611.8
2017-Apr-16 11:01N 50°58' E 001°42'918.7
2017-Apr-16 10:31N 51°03' E 001°29'7 7.8
2017-Apr-16 09:34N 51°07' E 001°20'0 0.0
2017-Apr-16 09:30N 51°07' E 001°20'0 0.7
2017-Apr-16 09:01N 51°07' E 001°21'917.8
2017-Apr-16 08:30N 51°03' E 001°33'1019.0
2017-Apr-16 08:00N 50°58' E 001°46'3 6.4
2017-Apr-16 07:30N 50°58' E 001°51'0 0.6
2017-Apr-16 07:00N 50°58' E 001°51'815.5
2017-Apr-16 06:30N 50°59' E 001°39'917.9
2017-Apr-16 06:00N 51°04' E 001°26'5 3.6
2017-Apr-16 04:31N 51°07' E 001°20'0 0.0
2017-Apr-16 04:23N 51°07' E 001°20'3 8.0
2017-Apr-16 04:01N 51°07' E 001°25'816.1
2017-Apr-16 03:30N 51°03' E 001°36'815.2
2017-Apr-16 03:00N 50°58' E 001°45'4 6.4
2017-Apr-16 02:28N 50°58' E 001°51'0 0.0
2017-Apr-16 01:59N 50°58' E 001°51'0 0.0
2017-Apr-16 01:29N 50°58' E 001°51'1 1.1
2017-Apr-16 00:56N 50°58' E 001°50'819.3
2017-Apr-16 00:30N 50°59' E 001°37'1019.5
2017-Apr-16 00:00N 51°05' E 001°25'4 8.0
2017-Apr-15 23:30N 51°07' E 001°20'0 0.3
2017-Apr-15 23:00N 51°07' E 001°20'815.0
2017-Apr-15 22:30N 51°04' E 001°31'816.8
2017-Apr-15 22:01N 50°59' E 001°42'611.7
2017-Apr-15 21:30N 50°58' E 001°51'0 0.0
2017-Apr-15 21:00N 50°58' E 001°51'1 2.8
2017-Apr-15 20:30N 50°58' E 001°49'815.6
2017-Apr-15 20:00N 50°59' E 001°37'815.4
2017-Apr-15 19:31N 51°04' E 001°27'6 8.7
2017-Apr-15 18:52N 51°07' E 001°20'0 0.0
2017-Apr-15 18:27N 51°07' E 001°20'410.2
2017-Apr-15 18:00N 51°06' E 001°27'1019.2
2017-Apr-15 17:30N 51°00' E 001°39'816.0
2017-Apr-15 17:00N 50°58' E 001°51'0 0.2
2017-Apr-15 16:30N 50°58' E 001°51'0 0.0
2017-Apr-15 16:01N 50°58' E 001°51'612.5
2017-Apr-15 15:30N 50°58' E 001°42'1019.5
2017-Apr-15 15:01N 51°04' E 001°28'610.1
2017-Apr-15 14:22N 51°07' E 001°20'3 3.6
2017-Apr-15 13:30N 51°07' E 001°25'1717.3
2017-Apr-15 12:30N 50°58' E 001°49'1 2.6
2017-Apr-15 11:59N 50°58' E 001°51'0 0.0
2017-Apr-15 11:28N 50°58' E 001°51'612.8
2017-Apr-15 11:00N 50°58' E 001°42'918.5
2017-Apr-15 10:31N 51°03' E 001°30'7 6.2
2017-Apr-15 09:20N 51°07' E 001°20'2 6.1
2017-Apr-15 09:00N 51°07' E 001°23'919.0
2017-Apr-15 08:30N 51°02' E 001°36'918.2
2017-Apr-15 08:00N 50°58' E 001°49'1 2.1
2017-Apr-15 07:30N 50°58' E 001°51'0 0.0
2017-Apr-15 07:00N 50°58' E 001°51'612.3
2017-Apr-15 06:31N 50°58' E 001°41'918.7
2017-Apr-15 06:00N 51°03' E 001°28'713.1
2017-Apr-15 05:29N 51°07' E 001°20'0 0.0
2017-Apr-15 04:51N 51°07' E 001°20'0 0.2
2017-Apr-15 04:21N 51°07' E 001°20'411.9
2017-Apr-15 04:00N 51°07' E 001°27'917.5
2017-Apr-15 03:30N 51°02' E 001°39'815.7
2017-Apr-15 03:00N 50°58' E 001°50'1 2.5
2017-Apr-15 02:30N 50°58' E 001°51'0 0.0
2017-Apr-15 02:00N 50°58' E 001°51'0 0.0
2017-Apr-15 01:30N 50°58' E 001°51'0 0.7
2017-Apr-15 01:00N 50°58' E 001°51'816.5
2017-Apr-15 00:31N 51°01' E 001°38'1019.2
2017-Apr-15 00:00N 51°05' E 001°25'4 7.0
2017-Apr-14 23:29N 51°07' E 001°20'0 0.3
2017-Apr-14 22:59N 51°07' E 001°20'714.4
2017-Apr-14 22:30N 51°05' E 001°30'918.8
2017-Apr-14 22:00N 50°59' E 001°42'611.1
2017-Apr-14 21:30N 50°58' E 001°51'0 0.0
2017-Apr-14 21:00N 50°58' E 001°51'0 0.6
2017-Apr-14 20:30N 50°58' E 001°51'815.7
2017-Apr-14 20:00N 50°59' E 001°38'918.4
2017-Apr-14 19:31N 51°04' E 001°26'5 9.4
2017-Apr-14 18:57N 51°07' E 001°20'0 0.0
2017-Apr-14 18:30N 51°07' E 001°20'510.5
2017-Apr-14 18:00N 51°06' E 001°28'815.9
2017-Apr-14 17:30N 51°02' E 001°38'817.0
2017-Apr-14 17:00N 50°58' E 001°51'0 0.7
2017-Apr-14 16:30N 50°58' E 001°51'2 4.3
2017-Apr-14 16:01N 50°58' E 001°48'918.8
2017-Apr-14 15:30N 51°01' E 001°33'1019.1
2017-Apr-14 15:00N 51°06' E 001°21'1 2.2
2017-Apr-14 14:30N 51°07' E 001°20'0 0.0
2017-Apr-14 14:00N 51°07' E 001°20'510.5
2017-Apr-14 13:31N 51°07' E 001°28'917.0
2017-Apr-14 13:01N 51°02' E 001°39'815.5
2017-Apr-14 12:31N 50°58' E 001°50'1 1.8
2017-Apr-14 12:00N 50°58' E 001°51'0 0.0
2017-Apr-14 11:30N 50°58' E 001°51'714.4
2017-Apr-14 11:00N 50°59' E 001°40'918.7
2017-Apr-14 10:30N 51°04' E 001°27'6 9.6
2017-Apr-14 09:55N 51°07' E 001°20'0 0.1
2017-Apr-14 09:17N 51°07' E 001°20'311.8
2017-Apr-14 09:01N 51°06' E 001°25'918.6
2017-Apr-14 08:30N 51°01' E 001°38'917.5
2017-Apr-14 08:01N 50°58' E 001°50'0 0.8
2017-Apr-14 07:31N 50°58' E 001°51'0 0.0
2017-Apr-14 07:00N 50°58' E 001°51'713.2
2017-Apr-14 06:30N 50°58' E 001°40'918.1
2017-Apr-14 06:00N 51°03' E 001°28'713.4
2017-Apr-14 05:30N 51°07' E 001°20'0 0.0
2017-Apr-14 04:50N 51°07' E 001°20'0 0.0
2017-Apr-14 04:18N 51°07' E 001°20'2 7.4
2017-Apr-14 04:01N 51°07' E 001°24'815.5
2017-Apr-14 03:31N 51°04' E 001°35'917.3
2017-Apr-14 03:01N 50°58' E 001°45'  

Dump ship's entire track history